Latest Weather Observations for Wynyard

IDT60801

Issued at 6:11 am EST Monday 28 September 2020 (issued every 10 minutes, with the page automatically refreshed every 10 minutes)

About weather observations | Map of weather stations | Latest weather observations for TAS | Other Formats
Station Details ID: 091107 Name: WYNYARD AIRPORT Lat: -41.00 Lon: 145.73 Height: 12.0 m
Data from the previous 72 hours. | See also: Recent months at Wynyard
Date/Time
EST
Temp
°C
App
Temp
°C
Dew
Point
°C
Rel
Hum
%
Delta-T
°C
Wind Press
QNH
hPa
Press
MSL
hPa
Rain since
9am
mm
Dir  Spd
km/h
Gust
km/h
Spd
kts
Gust
kts
28/06:00am 2.2 -0.8 1.0 92 0.4 WNW 6 7 3 4 1025.4 1025.4 0.0
28/05:30am 2.1 -1.0 0.3 88 0.7 W 6 9 3 5 1025.3 1025.3 0.0
28/05:00am 3.0 0.1 1.5 90 0.6 WNW 6 9 3 5 1025.1 1025.1 0.0
28/04:30am 2.3 -1.2 1.0 91 0.5 W 9 13 5 7 1025.0 1025.0 0.0
28/04:00am 2.9 -0.5 1.6 91 0.5 WNW 9 11 5 6 1025.0 1025.0 0.0
28/03:30am 2.6 -1.7 1.3 91 0.5 W 13 17 7 9 1024.7 1024.7 0.0
28/03:00am 2.9 -1.4 1.1 88 0.7 WNW 13 17 7 9 1024.8 1024.8 0.0
28/02:30am 3.8 -0.4 1.8 87 0.8 WSW 13 17 7 9 1024.9 1024.9 0.0
28/02:00am 2.9 -1.0 1.3 89 0.6 W 11 15 6 8 1025.0 1025.0 0.0
28/01:30am 2.7 -1.5 1.4 91 0.5 W 13 17 7 9 1025.0 1025.0 0.0
28/01:00am 3.3 -0.5 1.7 89 0.6 W 11 17 6 9 1025.0 1025.0 0.0
28/12:30am 3.0 -0.5 1.5 90 0.6 WNW 9 13 5 7 1025.1 1025.1 0.0
28/12:00am 3.5 0.1 1.7 88 0.7 WNW 9 15 5 8 1025.2 1025.2 0.0
 
Date/Time
EST
Temp
°C
App
Temp
°C
Dew
Point
°C
Rel
Hum
%
Delta-T
°C
Wind Press
QNH
hPa
Press
MSL
hPa
Rain since
9am
mm
Dir  Spd
km/h
Gust
km/h
Spd
kts
Gust
kts
27/11:30pm 3.6 0.1 1.0 83 1.0 W 9 13 5 7 1025.3 1025.3 0.0
27/11:00pm 5.1 1.7 2.1 81 1.2 NW 9 13 5 7 1025.0 1025.0 0.0
27/10:30pm 4.9 2.1 1.9 81 1.2 WSW 6 13 3 7 1025.2 1025.2 0.0
27/10:00pm 5.2 2.8 1.9 79 1.3 WNW 4 6 2 3 1025.2 1025.2 0.0
27/09:30pm 6.2 4.3 2.7 78 1.4 NNW 2 7 1 4 1025.3 1025.3 0.0
27/09:00pm 7.0 4.3 2.5 73 1.8 W 6 11 3 6 1025.0 1025.0 0.0
27/08:30pm 6.0 1.5 2.3 77 1.5 W 15 19 8 10 1024.8 1024.8 0.0
27/08:00pm 7.2 3.2 2.7 73 1.9 W 13 20 7 11 1024.6 1024.6 0.0
27/07:30pm 7.6 2.8 2.7 71 2.0 WSW 17 28 9 15 1024.4 1024.4 0.0
27/07:00pm 7.8 2.7 2.9 71 2.0 W 19 24 10 13 1024.3 1024.3 0.0
27/06:30pm 8.9 4.6 3.1 67 2.5 W 15 19 8 10 1024.1 1024.1 0.0
27/06:00pm 9.3 5.3 3.1 65 2.6 WSW 13 22 7 12 1023.7 1023.7 0.0
27/05:30pm 9.8 3.3 2.4 60 3.1 SSW 26 35 14 19 1023.3 1023.3 0.0
27/05:00pm 10.6 4.4 2.4 57 3.5 WSW 24 33 13 18 1022.8 1022.8 0.0
27/04:30pm 11.5 5.7 2.3 53 4.0 SW 22 39 12 21 1022.6 1022.6 0.0
27/04:04pm 12.0 5.2 3.0 54 3.9 SW 28 46 15 25 1022.5 1022.5 0.0
27/04:00pm 11.9 5.5 3.2 55 3.8 SW 26 43 14 23 1022.5 1022.5 0.0
27/03:30pm 12.3 5.5 3.0 53 4.1 SW 28 43 15 23 1022.5 1022.5 0.0
27/03:10pm 12.4 5.0 3.9 56 3.8 WSW 32 50 17 27 1022.5 1022.5 0.0
27/03:00pm 12.4 4.6 2.6 51 4.3 SW 33 48 18 26 1022.5 1022.5 0.0
27/02:30pm 11.4 4.9 2.4 54 3.9 SW 26 44 14 24 1022.5 1022.5 0.0
27/02:00pm 12.5 5.8 3.5 54 4.0 WSW 28 39 15 21 1022.3 1022.3 0.0
27/01:30pm 12.7 5.6 1.4 46 4.8 SSW 28 39 15 21 1022.3 1022.3 0.0
27/01:00pm 12.8 7.2 1.5 46 4.8 SW 20 32 11 17 1022.3 1022.3 0.0
27/12:30pm 12.3 6.3 3.5 55 3.9 SSW 24 37 13 20 1022.7 1022.7 0.0
27/12:05pm 13.1 6.4 3.7 53 4.2 WSW 28 46 15 25 1022.6 1022.6 0.0
27/12:00pm 12.6 6.7 3.8 55 3.9 W 24 35 13 19 1022.4 1022.4 0.0
27/11:51am 12.0 5.1 2.5 52 4.1 WSW 28 46 15 25 1022.8 1022.8 0.0
27/11:30am 12.6 6.5 2.5 50 4.4 WSW 24 35 13 19 1022.6 1022.6 0.0
27/11:00am 12.3 5.1 3.0 53 4.1 WSW 30 41 16 22 1022.7 1022.7 0.0
27/10:30am 11.0 4.4 1.8 53 3.9 S 26 35 14 19 1022.7 1022.7 0.0
27/10:21am 10.3 3.7 2.2 57 3.4 SSW 26 46 14 25 1022.8 1022.8 0.0
27/10:19am 10.0 2.9 1.4 55 3.6 SW 28 46 15 25 1022.8 1022.8 0.0
27/10:00am 10.8 6.1 3.1 59 3.3 SSW 17 28 9 15 1022.7 1022.7 0.0
27/09:30am 10.3 5.0 1.9 56 3.5 SW 19 30 10 16 1022.5 1022.5 0.0
27/09:00am 9.9 4.8 3.9 66 2.6 S 20 32 11 17 1022.5 1022.5 1.4
27/08:30am 9.0 5.9 3.4 68 2.4 WSW 9 20 5 11 1022.0 1022.0 1.4
27/08:00am 7.6 3.6 2.7 71 2.0 W 13 17 7 9 1021.6 1021.6 1.4
27/07:30am 6.3 2.8 3.5 82 1.2 WNW 11 15 6 8 1021.0 1021.0 1.4
27/07:00am 2.6 0.2 2.0 96 0.2 W 4 9 2 5 1020.7 1020.7 1.4
27/06:30am 0.8 -3.2 0.2 96 0.2 W 11 15 6 8 1020.2 1020.2 1.4
27/06:00am 0.2 -3.9 -0.2 97 0.1 WSW 11 13 6 7 1019.6 1019.6 1.4
27/05:30am 0.6 -3.1 0.0 96 0.2 WSW 9 11 5 6 1019.3 1019.3 1.4
27/05:00am 0.0 -4.9 -0.6 96 0.2 WSW 15 17 8 9 1018.7 1018.7 1.4
27/04:30am 0.6 -3.1 0.0 96 0.2 W 9 13 5 7 1018.4 1018.4 1.4
27/04:00am 1.0 -2.3 0.4 96 0.2 SW 7 9 4 5 1018.2 1018.2 1.4
27/03:30am 1.2 -2.5 0.0 92 0.4 WNW 9 13 5 7 1017.6 1017.6 1.4
27/03:00am 1.7 -3.0 0.7 93 0.4 W 15 17 8 9 1017.4 1017.4 1.4
27/02:30am 2.8 -0.4 1.0 88 0.7 WSW 7 11 4 6 1017.2 1017.2 1.4
27/02:00am 2.9 -1.0 1.0 87 0.7 W 11 17 6 9 1016.8 1016.9 1.4
27/01:30am 3.8 -2.1 1.5 85 0.9 WSW 22 26 12 14 1016.4 1016.5 1.4
27/01:00am 4.0 -2.3 1.4 83 1.0 WSW 24 30 13 16 1016.0 1016.1 1.4
27/12:30am 4.1 -2.2 1.5 83 1.0 WSW 24 28 13 15 1015.7 1015.8 1.4
27/12:00am 3.0 -2.4 1.1 87 0.7 WSW 19 20 10 11 1015.3 1015.4 1.4
 
Date/Time
EST
Temp
°C
App
Temp
°C
Dew
Point
°C
Rel
Hum
%
Delta-T
°C
Wind Press
QNH
hPa
Press
MSL
hPa
Rain since
9am
mm
Dir  Spd
km/h
Gust
km/h
Spd
kts
Gust
kts
26/11:30pm 3.6 -1.4 1.2 84 0.9 W 17 22 9 12 1014.9 1015.0 1.4
26/11:00pm 4.3 -0.7 1.5 82 1.1 W 17 24 9 13 1014.6 1014.7 1.4
26/10:30pm 5.6 1.0 1.7 76 1.6 WSW 15 26 8 14 1014.3 1014.4 1.4
26/10:00pm 5.4 1.2 1.5 76 1.5 WSW 13 19 7 10 1013.7 1013.8 1.4
26/09:30pm 5.5 1.1 2.5 81 1.2 WSW 15 28 8 15 1013.2 1013.3 1.4
26/09:00pm 5.2 0.8 2.7 84 1.0 W 15 17 8 9 1012.3 1012.4 1.4
26/08:30pm 5.6 0.3 2.9 83 1.1 WSW 20 28 11 15 1011.6 1011.7 1.4
26/08:12pm 6.4 -0.4 3.0 79 1.4 WSW 28 44 15 24 1011.5 1011.6 1.4
26/08:00pm 6.2 0.9 3.2 81 1.3 W 20 24 11 13 1011.2 1011.3 1.4
26/07:30pm 6.3 1.1 3.3 81 1.3 WSW 20 30 11 16 1010.3 1010.4 1.4
26/07:00pm 6.6 1.4 3.4 80 1.3 WSW 20 28 11 15 1009.7 1009.8 1.4
26/06:30pm 7.7 2.1 3.4 74 1.8 WSW 22 35 12 19 1009.0 1009.1 1.4
26/06:00pm 8.2 1.5 3.7 73 1.9 SW 28 44 15 24 1008.4 1008.5 1.4
26/05:30pm 9.0 2.5 4.6 74 1.9 WSW 28 46 15 25 1007.6 1007.7 1.4
26/05:29pm 9.2 2.6 4.2 71 2.2 WSW 28 46 15 25 1007.6 1007.7 1.4
26/05:00pm 9.1 2.7 5.3 77 1.7 WSW 28 39 15 21 1007.0 1007.1 1.4
26/04:32pm 8.4 1.3 5.7 83 1.2 WSW 32 50 17 27 1007.1 1007.2 1.4
26/04:30pm 8.5 1.8 5.8 83 1.2 WSW 30 44 16 24 1007.1 1007.2 1.4
26/04:15pm 8.8 2.6 6.3 84 1.1 WSW 28 43 15 23 1006.8 1006.9 1.4
26/04:00pm 8.4 1.7 5.5 82 1.3 SW 30 50 16 27 1006.8 1006.9 1.4
26/03:56pm 8.3 1.4 4.5 77 1.7 SW 30 50 16 27 1007.0 1007.1 1.2
26/03:30pm 10.8 2.9 4.5 65 2.8 WSW 35 50 19 27 1006.3 1006.4 0.2
26/03:09pm 11.2 3.7 4.2 62 3.1 WSW 33 57 18 31 1006.3 1006.4 0.2
26/03:00pm 12.6 6.2 5.1 60 3.5 WSW 28 43 15 23 1006.1 1006.2 0.2
26/02:30pm 12.2 4.8 3.9 57 3.7 WSW 32 50 17 27 1006.2 1006.3 0.2
26/02:02pm 10.6 3.3 5.6 71 2.3 SW 33 52 18 28 1006.5 1006.6 0.2
26/02:00pm 10.1 2.1 5.5 73 2.1 SW 37 54 20 29 1006.5 1006.6 0.2
26/01:30pm 10.6 2.3 6.0 73 2.1 WSW 39 57 21 31 1006.4 1006.5 0.2
26/01:01pm 12.3 4.9 5.2 62 3.3 WSW 33 52 18 28 1006.1 1006.2 0.2
26/01:00pm 12.3 5.1 5.9 65 3.0 WSW 33 46 18 25 1006.1 1006.2 0.2
26/12:45pm 11.0 3.1 4.5 64 2.9 WSW 35 48 19 26 1006.2 1006.3 0.2
26/12:40pm 12.0 5.4 4.0 58 3.6 WSW 28 48 15 26 1006.1 1006.2 0.2
26/12:30pm 12.3 5.0 4.5 59 3.5 WSW 32 44 17 24 1006.2 1006.3 0.0
26/12:06pm 11.6 4.1 3.4 57 3.6 WSW 32 54 17 29 1006.5 1006.6 0.0
26/12:00pm 12.2 5.1 3.4 55 3.9 WSW 30 41 16 22 1006.4 1006.5 0.0
26/11:38am 11.4 4.9 4.6 63 3.1 WSW 28 46 15 25 1006.6 1006.7 0.0
26/11:30am 11.1 5.3 6.3 72 2.2 SW 26 35 14 19 1006.7 1006.8 0.0
26/11:00am 11.8 5.5 5.9 67 2.8 WSW 28 44 15 24 1006.9 1007.0 0.0
26/10:30am 11.0 5.0 3.5 60 3.3 WSW 24 35 13 19 1007.1 1007.2 0.0
26/10:00am 10.3 3.0 2.4 58 3.4 SSW 30 44 16 24 1007.2 1007.3 0.0
26/09:49am 10.9 3.4 3.5 60 3.3 WSW 32 50 17 27 1007.2 1007.3 0.0
26/09:30am 10.0 3.0 1.9 57 3.4 SW 28 44 15 24 1007.2 1007.3 0.0
26/09:15am 10.4 3.6 3.2 61 3.1 SW 28 48 15 26 1007.1 1007.2 0.0
26/09:00am 9.8 3.0 2.9 62 3.0 SW 28 43 15 23 1007.3 1007.4 0.8
26/08:30am 8.9 3.7 2.7 65 2.6 SSW 19 35 10 19 1006.9 1007.0 0.8
26/08:00am 9.1 3.5 3.3 67 2.5 SW 22 28 12 15 1006.7 1006.8 0.8
26/07:30am 8.9 3.4 3.9 71 2.2 SW 22 32 12 17 1006.2 1006.3 0.8
26/07:00am 8.0 2.8 3.7 74 1.9 WSW 20 30 11 16 1005.5 1005.5 0.8
26/06:30am 7.3 2.7 3.5 77 1.6 WSW 17 24 9 13 1004.8 1004.8 0.8
26/06:00am 7.4 2.9 4.0 79 1.5 W 17 20 9 11 1004.1 1004.1 0.8
26/05:30am 7.8 0.3 3.5 74 1.8 SW 32 54 17 29 1003.2 1003.2 0.8
26/05:01am 8.1 1.4 3.9 75 1.8 SW 28 46 15 25 1002.1 1002.1 0.8
26/05:00am 8.2 1.9 4.0 75 1.8 SW 26 46 14 25 1002.1 1002.1 0.8
26/04:30am 8.3 2.5 4.5 77 1.7 SSW 24 39 13 21 1001.8 1001.8 0.8
26/04:00am 8.5 2.8 4.7 77 1.7 SSW 24 35 13 19 1001.5 1001.5 0.8
26/03:30am 8.6 2.2 5.0 78 1.6 SW 28 37 15 20 1001.1 1001.1 0.8
26/03:29am 8.6 2.5 5.0 78 1.6 SW 26 37 14 20 1001.1 1001.1 0.8
26/03:00am 7.7 4.1 5.0 83 1.2 SW 13 19 7 10 1001.0 1001.0 0.8
26/02:30am 6.6 4.1 4.9 89 0.7 WNW 7 11 4 6 1001.0 1001.0 0.8
26/02:00am 6.7 4.1 6.1 96 0.3 NW 9 13 5 7 1000.9 1000.9 0.8
26/01:30am 6.0 2.8 5.1 94 0.4 WNW 11 13 6 7 1001.0 1001.0 0.8
26/01:00am 6.6 3.2 5.7 94 0.4 W 13 15 7 8 1001.0 1001.0 0.8
26/12:30am 6.9 3.1 6.0 94 0.4 W 15 17 8 9 1001.1 1001.1 0.8
26/12:00am 6.8 3.4 5.7 93 0.5 W 13 15 7 8 1001.1 1001.1 0.8
 
Date/Time
EST
Temp
°C
App
Temp
°C
Dew
Point
°C
Rel
Hum
%
Delta-T
°C
Wind Press
QNH
hPa
Press
MSL
hPa
Rain since
9am
mm
Dir  Spd
km/h
Gust
km/h
Spd
kts
Gust
kts
25/11:30pm 6.9 3.9 5.8 93 0.5 W 11 15 6 8 1001.1 1001.1 0.8
25/11:00pm 6.8 4.2 6.2 96 0.3 WSW 9 13 5 7 1001.2 1001.2 0.8
25/10:30pm 6.6 4.0 6.0 96 0.3 WSW 9 9 5 5 1001.2 1001.2 0.8
25/10:00pm 6.9 4.7 6.0 94 0.4 SSW 7 9 4 5 1001.4 1001.4 0.8
25/09:30pm 6.9 5.7 6.3 96 0.3 SSW 2 9 1 5 1001.3 1001.3 0.8
25/09:00pm 7.0 4.8 6.1 94 0.4 SSW 7 9 4 5 1001.2 1001.2 0.8
25/08:30pm 7.3 5.3 6.1 92 0.5 S 6 7 3 4 1001.1 1001.1 0.8
25/08:00pm 7.1 4.9 6.4 95 0.3 SSW 7 9 4 5 1000.8 1000.8 0.8
25/07:30pm 8.0 6.8 6.5 90 0.7 SSE 2 6 1 3 1000.4 1000.4 0.8
25/07:00pm 7.9 5.8 6.0 88 0.9 ESE 6 7 3 4 1000.0 1000.0 0.8
25/06:30pm 8.2 6.1 6.0 86 1.0 ESE 6 9 3 5 999.5 999.5 0.8
25/06:00pm 8.8 5.1 6.3 84 1.2 E 15 17 8 9 999.2 999.2 0.8
25/05:30pm 8.9 5.6 6.2 83 1.2 E 13 19 7 10 998.8 998.8 0.8
25/05:00pm 9.6 5.9 6.5 81 1.5 ENE 15 20 8 11 998.4 998.4 0.8
25/04:30pm 9.6 5.6 6.5 81 1.4 ENE 17 20 9 11 998.3 998.3 0.8
25/04:00pm 9.7 5.6 6.4 80 1.5 ENE 17 22 9 12 998.2 998.2 0.8
25/03:30pm 9.7 5.5 5.7 76 1.8 ENE 17 20 9 11 998.2 998.2 0.8
25/03:00pm 9.6 5.1 6.1 79 1.6 E 19 24 10 13 998.3 998.3 0.8
25/02:30pm 9.6 5.2 6.5 81 1.4 E 19 26 10 14 998.5 998.5 0.8
25/02:00pm 10.0 5.5 7.1 82 1.4 E 20 26 11 14 998.5 998.5 0.8
25/01:30pm 10.0 6.0 6.7 80 1.5 ENE 17 24 9 13 998.8 998.8 0.8
25/01:00pm 10.1 5.8 7.2 82 1.4 NE 19 24 10 13 999.0 999.0 0.8
25/12:30pm 10.5 7.2 7.9 84 1.3 NNE 15 20 8 11 999.2 999.2 0.8
25/12:00pm 9.7 5.8 7.3 85 1.1 NNE 17 22 9 12 999.2 999.2 0.8
25/11:30am 9.3 5.0 6.9 85 1.1 NNE 19 24 10 13 999.5 999.5 0.8
25/11:20am 9.3 4.8 7.1 86 1.0 NNE 20 28 11 15 999.5 999.5 0.8
25/11:00am 9.4 4.3 7.8 90 0.8 NNE 24 32 13 17 999.5 999.5 0.8
25/10:55am 9.4 4.6 7.5 88 0.9 NNE 22 30 12 16 999.6 999.6 0.8
25/10:30am 9.7 5.9 7.5 86 1.0 NNE 17 24 9 13 999.8 999.8 0.6
25/10:00am 9.6 5.3 7.7 88 0.9 NNE 20 28 11 15 999.9 999.9 0.2
25/09:30am 9.7 5.4 7.0 83 1.3 N 19 28 10 15 999.9 999.9 0.2
25/09:00am 9.2 7.1 6.8 85 1.1 NNE 7 15 4 8 1000.1 1000.1 17.2
25/08:47am 8.6 6.6 7.1 90 0.7 ENE 7 17 4 9 1000.3 1000.3 17.2
25/08:41am 8.7 6.9 7.3 91 0.7 ENE 6 17 3 9 1000.2 1000.2 17.0
25/08:30am 8.1 7.1 7.3 95 0.4 SSW 2 7 1 4 1000.3 1000.3 17.0
25/08:27am 8.1 6.3 7.2 94 0.4 SSW 6 7 3 4 1000.3 1000.3 16.6
25/08:13am 8.5 6.7 7.3 92 0.6 SSE 6 7 3 4 1000.2 1000.2 13.8
25/08:00am 8.5 6.7 7.0 90 0.7 SE 6 7 3 4 1000.2 1000.2 13.4
25/07:32am 8.3 5.9 6.9 91 0.7 NW 9 15 5 8 1000.3 1000.3 13.4
25/07:30am 8.2 5.0 6.8 91 0.6 NW 13 20 7 11 1000.3 1000.3 13.4
25/07:17am 8.4 3.1 6.7 89 0.8 NW 24 35 13 19 1000.3 1000.3 13.0
25/07:10am 9.0 5.0 6.8 86 1.0 NNW 17 35 9 19 1000.2 1000.2 12.8
25/07:00am 9.2 6.8 7.0 86 1.0 NW 9 13 5 7 1000.0 1000.0 12.8
25/06:30am 8.9 5.9 7.7 92 0.6 N 13 19 7 10 999.9 999.9 12.8
25/06:18am 8.6 5.5 7.2 91 0.7 N 13 19 7 10 999.9 999.9 12.8

Other formats

Comma delimited format used in spreadsheet applications
http://www.bom.gov.au/fwo/IDT60801/IDT60801.95957.axf

JavaScript Object Notation format (JSON) in row-major order
http://www.bom.gov.au/fwo/IDT60801/IDT60801.95957.json

Data quality

Most of these data are generated automatically and are frequently updated. Quality checks on data are not normally performed. It is possible for incorrect values to appear. Refer to information at About Latest Weather Observations and please check the disclaimer before using these data.